KFLD/FLD METAR and TAF weather

Enter ICAO airport designator
Station Type Date Time Source
KFLD METAR 2019/10/23 02:53 UTC NOAA

KFLD 230253Z AUTO 25009G19KT 10SM SCT029 OVC038 08/03 A2964 RMK AO2 PK WND 27026/0214 SLP040 60000 T00780028 51014


Station Type Date Time Source
KFLD Decoded METAR 2019/10/23 02:53 UTC NOAA

FOND DU LAC COUNTY AIRPORT, WI, United States (KFLD) 43-46N 88-29W 240M
Oct 22, 2019 - 10:53 PM EDT / 2019.10.23 0253 UTC
Wind: from the WSW (250 degrees) at 10 MPH (9 KT) gusting to 22 MPH (19 KT):0
Visibility: 10 mile(s):0
Sky conditions: overcast
Temperature: 46.0 F (7.8 C)
Dew Point: 37.0 F (2.8 C)
Relative Humidity: 70%
Pressure (altimeter): 29.64 in. Hg (1003 hPa)
Pressure tendency: 0.04 inches (1.4 hPa) higher than three hours ago
ob: KFLD 230253Z AUTO 25009G19KT 10SM SCT029 OVC038 08/03 A2964 RMK AO2 PK WND 27026/0214 SLP040 60000 T00780028 51014
cycle: 3

Station Type Date Time Source
KFLD TAF UTC NOAA

Error!

Example: see airport list